Time;durP1;ratioP1;P1;durP2;ratioP2;P2;SDS_P1;SDS_P2;PMS_P1;PMS_P2;Temp;Humidity;BMP_temperature;BMP_pressure;BME280_temperature;BME280_humidity;BME280_pressure;Samples;Min_cycle;Max_cycle;Signal;HPM_P1;HPM_P2
2023/05/30 00:01:16;;;;;;;9.40;2.55;;;10.50;99.90;;;;;;4991796;28;20044;-84
2023/05/30 00:03:44;;;;;;;14.75;3.25;;;10.50;99.90;;;;;;5004331;28;20120;-84
2023/05/30 00:06:11;;;;;;;12.25;2.80;;;10.50;99.90;;;;;;4989957;28;20037;-83
2023/05/30 00:08:37;;;;;;;10.05;3.47;;;10.50;99.90;;;;;;5006507;28;20048;-85
2023/05/30 00:11:02;;;;;;;13.95;2.70;;;10.50;99.90;;;;;;5022868;28;20041;-84
2023/05/30 00:13:28;;;;;;;10.85;2.72;;;10.40;99.90;;;;;;5022698;28;20048;-84
2023/05/30 00:15:56;;;;;;;16.35;3.60;;;10.50;99.90;;;;;;5011690;28;20040;-84
2023/05/30 00:18:23;;;;;;;10.50;3.30;;;10.40;99.90;;;;;;5027912;28;20041;-84
2023/05/30 00:20:50;;;;;;;11.35;3.50;;;10.40;99.90;;;;;;4994213;28;20451;-84
2023/05/30 00:23:15;;;;;;;14.50;3.38;;;10.40;99.90;;;;;;5006752;28;20117;-84
2023/05/30 00:25:42;;;;;;;10.60;2.95;;;10.40;99.90;;;;;;5024424;28;20132;-85
2023/05/30 00:28:08;;;;;;;9.90;2.97;;;10.40;99.90;;;;;;5000316;28;20097;-84
2023/05/30 00:30:35;;;;;;;12.52;3.10;;;10.40;99.90;;;;;;5022947;28;20033;-84
2023/05/30 00:33:01;;;;;;;8.90;3.17;;;10.40;99.90;;;;;;4990767;28;20037;-84
2023/05/30 00:35:27;;;;;;;9.45;3.10;;;10.40;99.90;;;;;;5008526;28;20443;-84
2023/05/30 00:37:53;;;;;;;11.38;3.28;;;10.40;99.90;;;;;;4992931;28;20040;-86
2023/05/30 00:40:19;;;;;;;16.65;3.25;;;10.50;99.90;;;;;;4998576;28;20072;-85
2023/05/30 00:42:44;;;;;;;13.50;3.65;;;10.50;99.90;;;;;;4976409;28;20037;-84
2023/05/30 00:45:10;;;;;;;14.82;3.60;;;10.60;99.90;;;;;;4999608;28;20029;-84
2023/05/30 00:47:36;;;;;;;13.80;3.03;;;10.60;99.90;;;;;;5007260;28;20058;-84
2023/05/30 00:50:03;;;;;;;14.35;3.17;;;10.60;99.90;;;;;;5008386;28;20452;-84
2023/05/30 00:52:29;;;;;;;17.40;4.20;;;10.70;99.90;;;;;;5025725;28;20490;-84
2023/05/30 00:54:56;;;;;;;7.22;3.22;;;10.70;99.90;;;;;;4981755;28;20034;-85
2023/05/30 00:57:22;;;;;;;13.65;3.33;;;10.70;99.90;;;;;;5042690;28;20074;-84
2023/05/30 00:59:48;;;;;;;10.55;3.33;;;10.70;99.90;;;;;;5036587;28;20107;-84
2023/05/30 01:02:16;;;;;;;11.68;3.15;;;10.80;99.90;;;;;;5022606;28;20041;-84
2023/05/30 01:04:42;;;;;;;16.30;3.20;;;10.80;99.90;;;;;;5025399;28;20507;-84
2023/05/30 01:07:10;;;;;;;13.80;3.00;;;10.80;99.90;;;;;;4982773;28;20033;-85
2023/05/30 01:09:37;;;;;;;9.48;3.47;;;10.80;99.90;;;;;;4984314;28;20060;-84
2023/05/30 01:12:15;;;;;;;15.40;3.33;;;10.80;99.90;;;;;;4991833;28;20041;-84
2023/05/30 01:14:55;;;;;;;13.13;3.72;;;10.80;99.90;;;;;;5005903;28;20041;-84
2023/05/30 01:18:03;;;;;;;10.18;2.45;;;10.80;99.90;;;;;;5007498;28;20044;-85
2023/05/30 01:20:36;;;;;;;10.32;3.28;;;10.90;99.90;;;;;;4983339;28;20045;-84
2023/05/30 01:23:23;;;;;;;6.32;2.55;;;10.80;99.90;;;;;;5024180;28;20041;-84
2023/05/30 01:26:19;;;;;;;11.55;3.28;;;10.80;99.90;;;;;;5009202;28;20461;-85
2023/05/30 01:28:48;;;;;;;13.60;3.35;;;10.90;99.90;;;;;;4990756;28;20048;-84
2023/05/30 01:31:15;;;;;;;14.00;3.60;;;10.90;99.90;;;;;;5005902;28;20115;-84
2023/05/30 01:33:43;;;;;;;11.20;3.00;;;10.90;99.90;;;;;;5031676;28;20041;-83
2023/05/30 01:36:10;;;;;;;19.52;3.60;;;10.90;99.90;;;;;;5021966;28;20040;-84
2023/05/30 01:38:37;;;;;;;14.13;3.80;;;10.90;99.90;;;;;;4988880;28;20497;-83
2023/05/30 01:41:07;;;;;;;13.38;3.85;;;10.90;99.90;;;;;;4999231;28;20440;-85
2023/05/30 01:44:03;;;;;;;12.13;3.88;;;10.90;99.90;;;;;;5025388;28;20068;-84
2023/05/30 01:46:34;;;;;;;11.43;3.88;;;10.90;99.90;;;;;;4993124;28;20052;-84
2023/05/30 01:49:23;;;;;;;11.25;3.90;;;10.90;99.90;;;;;;5017277;28;20384;-84
2023/05/30 01:51:55;;;;;;;9.73;3.60;;;10.90;99.90;;;;;;5019781;28;20134;-84
2023/05/30 01:54:23;;;;;;;14.57;3.80;;;10.90;99.90;;;;;;5025767;28;20077;-84
2023/05/30 01:57:05;;;;;;;10.73;3.60;;;10.90;99.90;;;;;;5022255;28;20049;-85
2023/05/30 01:59:31;;;;;;;8.98;3.55;;;10.90;99.90;;;;;;5019797;28;20041;-84
2023/05/30 02:01:57;;;;;;;12.07;3.92;;;10.80;99.90;;;;;;4989155;28;20049;-84
2023/05/30 02:04:24;;;;;;;9.40;4.00;;;10.80;99.90;;;;;;5004291;28;20073;-85
2023/05/30 02:06:50;;;;;;;9.07;3.60;;;10.80;99.90;;;;;;4988295;28;20558;-85
2023/05/30 02:09:16;;;;;;;10.82;3.65;;;10.80;99.90;;;;;;4999973;28;20221;-84
2023/05/30 02:11:42;;;;;;;9.23;3.45;;;10.80;99.90;;;;;;5023753;28;20047;-85
2023/05/30 02:14:07;;;;;;;10.27;3.53;;;10.80;99.90;;;;;;5013509;28;20041;-84
2023/05/30 02:16:33;;;;;;;11.00;3.65;;;10.80;99.90;;;;;;5000942;28;20056;-83
2023/05/30 02:19:00;;;;;;;13.88;3.47;;;10.80;99.90;;;;;;5003167;28;20231;-83
2023/05/30 02:21:26;;;;;;;8.32;3.22;;;10.80;99.90;;;;;;5000804;28;20060;-84
2023/05/30 02:23:51;;;;;;;12.50;3.55;;;10.80;99.90;;;;;;4999012;28;20041;-83
2023/05/30 02:26:17;;;;;;;11.15;3.67;;;10.90;99.90;;;;;;5005789;28;20490;-83
2023/05/30 02:28:43;;;;;;;8.02;3.38;;;10.80;99.90;;;;;;4985985;28;20037;-84
2023/05/30 02:31:08;;;;;;;8.68;3.85;;;10.80;99.90;;;;;;5026732;28;20053;-83
2023/05/30 02:33:34;;;;;;;14.10;3.88;;;10.80;99.90;;;;;;4989103;28;20095;-84
2023/05/30 02:36:00;;;;;;;11.65;3.63;;;10.80;99.90;;;;;;4999472;28;20524;-83
2023/05/30 02:38:25;;;;;;;10.55;3.70;;;10.80;99.90;;;;;;4998674;28;20570;-83
2023/05/30 02:40:51;;;;;;;11.48;3.65;;;10.80;99.90;;;;;;5001868;28;20099;-84
2023/05/30 02:43:17;;;;;;;11.30;3.55;;;10.80;99.90;;;;;;5021078;28;20040;-84
2023/05/30 02:45:42;;;;;;;14.23;3.58;;;10.80;99.90;;;;;;5002353;28;20083;-83
2023/05/30 02:48:08;;;;;;;9.43;3.50;;;10.80;99.90;;;;;;4986434;28;20092;-84
2023/05/30 02:50:34;;;;;;;10.13;2.72;;;10.80;99.90;;;;;;5003216;28;20111;-83
2023/05/30 02:53:01;;;;;;;9.57;2.90;;;10.80;99.90;;;;;;4983189;28;20072;-84
2023/05/30 02:55:26;;;;;;;11.45;3.45;;;10.70;99.90;;;;;;4995146;28;20106;-85
2023/05/30 02:57:52;;;;;;;9.48;3.30;;;10.70;99.90;;;;;;5003393;28;20497;-84
2023/05/30 03:00:19;;;;;;;8.63;3.28;;;10.70;99.90;;;;;;4992859;28;20477;-83
2023/05/30 03:02:46;;;;;;;8.45;3.63;;;10.70;99.90;;;;;;5008762;28;20405;-84
2023/05/30 03:05:12;;;;;;;8.38;3.53;;;10.70;99.90;;;;;;5003895;28;20033;-84
2023/05/30 03:07:38;;;;;;;12.20;3.45;;;10.70;99.90;;;;;;4992996;28;20045;-84
2023/05/30 03:10:04;;;;;;;9.70;3.38;;;10.70;99.90;;;;;;4992979;28;20073;-85
2023/05/30 03:12:30;;;;;;;7.82;2.70;;;10.70;99.90;;;;;;5004887;28;20448;-84
2023/05/30 03:14:56;;;;;;;7.07;2.60;;;10.70;99.90;;;;;;5002888;28;20038;-84
2023/05/30 03:17:22;;;;;;;13.15;3.38;;;10.70;99.90;;;;;;5001509;28;20541;-85
2023/05/30 03:19:48;;;;;;;11.95;2.80;;;10.70;99.90;;;;;;4983822;28;20041;-85
2023/05/30 03:22:14;;;;;;;11.05;3.20;;;10.70;99.90;;;;;;4988648;28;20038;-85
2023/05/30 03:24:39;;;;;;;13.98;2.83;;;10.70;99.90;;;;;;5004145;28;20054;-85
2023/05/30 03:27:07;;;;;;;11.13;3.50;;;10.70;99.90;;;;;;5021718;28;20044;-84
2023/05/30 03:29:33;;;;;;;9.15;3.03;;;10.70;99.90;;;;;;4993272;28;20129;-84
2023/05/30 03:32:00;;;;;;;9.25;2.97;;;10.80;99.90;;;;;;5021986;28;20037;-84
2023/05/30 03:34:27;;;;;;;12.10;3.42;;;10.60;99.90;;;;;;4994571;28;20049;-84
2023/05/30 03:36:52;;;;;;;10.88;3.53;;;10.60;99.90;;;;;;4988222;28;20041;-85
2023/05/30 03:39:22;;;;;;;10.20;3.13;;;10.70;99.90;;;;;;5005073;28;20041;-84
2023/05/30 03:41:48;;;;;;;14.05;4.00;;;10.70;99.90;;;;;;5025792;28;20048;-84
2023/05/30 03:44:14;;;;;;;11.90;3.50;;;10.70;99.90;;;;;;5001549;28;20113;-84
2023/05/30 03:46:40;;;;;;;9.60;3.50;;;10.70;99.90;;;;;;5018973;28;20507;-84
2023/05/30 03:49:06;;;;;;;14.77;3.22;;;10.70;99.90;;;;;;5007606;28;20056;-84
2023/05/30 03:51:33;;;;;;;10.38;3.33;;;10.70;99.90;;;;;;5025579;28;20046;-83
2023/05/30 03:53:59;;;;;;;14.65;4.07;;;10.70;99.90;;;;;;5032937;28;20560;-83
2023/05/30 03:56:25;;;;;;;10.75;3.33;;;10.80;99.90;;;;;;4999998;28;20132;-83
2023/05/30 03:58:52;;;;;;;10.13;3.45;;;10.80;99.90;;;;;;4989976;28;20486;-83
2023/05/30 04:01:18;;;;;;;10.98;2.97;;;10.80;99.90;;;;;;5011583;28;20033;-85
2023/05/30 04:03:44;;;;;;;9.30;3.42;;;10.80;99.90;;;;;;5008162;28;20034;-85
2023/05/30 04:06:10;;;;;;;12.55;3.42;;;10.90;99.90;;;;;;5007501;28;20679;-85
2023/05/30 04:08:36;;;;;;;11.73;3.10;;;10.80;99.90;;;;;;5027813;28;20481;-84
2023/05/30 04:11:03;;;;;;;6.75;2.90;;;10.80;99.90;;;;;;4975165;28;20045;-85
2023/05/30 04:13:29;;;;;;;10.20;3.20;;;10.80;99.90;;;;;;4997342;28;20037;-84
2023/05/30 04:15:54;;;;;;;7.68;3.00;;;10.90;99.90;;;;;;5003286;28;20041;-85
2023/05/30 04:18:20;;;;;;;13.15;3.92;;;10.90;99.90;;;;;;4995009;28;20036;-84
2023/05/30 04:20:46;;;;;;;9.00;3.38;;;10.90;99.90;;;;;;4990153;28;20092;-84
2023/05/30 04:23:12;;;;;;;11.13;3.47;;;10.90;99.90;;;;;;5024038;28;20033;-85
2023/05/30 04:25:38;;;;;;;15.25;3.47;;;10.90;99.90;;;;;;4991276;28;20240;-84
2023/05/30 04:28:05;;;;;;;11.48;3.38;;;10.90;99.90;;;;;;5006998;28;20037;-83
2023/05/30 04:30:33;;;;;;;7.55;3.30;;;11.00;99.90;;;;;;5028636;28;20059;-84
2023/05/30 04:32:59;;;;;;;11.23;3.42;;;10.90;99.90;;;;;;5007169;28;20082;-84
2023/05/30 04:35:25;;;;;;;9.55;2.85;;;11.00;99.90;;;;;;5012247;28;20088;-85
2023/05/30 04:37:53;;;;;;;12.20;2.97;;;11.00;99.90;;;;;;5022611;28;20142;-85
2023/05/30 04:40:19;;;;;;;11.95;3.08;;;11.10;99.90;;;;;;5017311;28;20063;-84
2023/05/30 04:42:51;;;;;;;13.77;3.40;;;11.10;99.90;;;;;;5004223;28;20052;-84
2023/05/30 04:45:18;;;;;;;9.18;3.17;;;11.00;99.90;;;;;;5014857;28;20051;-85
2023/05/30 04:47:45;;;;;;;9.05;3.35;;;11.00;99.90;;;;;;4991940;28;20501;-84
2023/05/30 04:50:14;;;;;;;9.88;3.30;;;11.00;99.90;;;;;;5006856;28;20042;-84
2023/05/30 04:52:40;;;;;;;11.60;3.28;;;11.10;99.90;;;;;;5023964;28;20041;-84
2023/05/30 04:55:08;;;;;;;11.35;3.25;;;11.10;99.90;;;;;;5015285;28;20026;-84
2023/05/30 04:57:33;;;;;;;9.80;3.60;;;11.10;99.90;;;;;;5007912;28;21441;-83
2023/05/30 04:59:59;;;;;;;12.32;3.63;;;11.10;99.90;;;;;;4994787;28;20124;-84
2023/05/30 05:02:28;;;;;;;11.18;3.47;;;11.20;99.90;;;;;;4991220;28;20769;-84
2023/05/30 05:04:54;;;;;;;13.60;4.45;;;11.10;99.90;;;;;;4988636;28;20380;-84
2023/05/30 05:07:20;;;;;;;12.45;3.50;;;11.20;99.90;;;;;;4994730;28;20060;-84
2023/05/30 05:09:45;;;;;;;11.23;3.50;;;11.20;99.90;;;;;;5010507;28;20381;-85
2023/05/30 05:12:13;;;;;;;11.88;3.80;;;11.20;99.90;;;;;;4995717;28;20595;-84
2023/05/30 05:14:40;;;;;;;12.70;3.65;;;11.20;99.90;;;;;;5025035;28;20459;-84
2023/05/30 05:17:06;;;;;;;10.00;3.88;;;11.30;99.90;;;;;;5022158;28;20047;-85
2023/05/30 05:19:32;;;;;;;9.57;4.22;;;11.30;99.90;;;;;;5006583;28;20437;-84
2023/05/30 05:21:57;;;;;;;11.93;3.72;;;11.40;99.90;;;;;;5032447;28;20068;-84
2023/05/30 05:24:23;;;;;;;13.73;4.10;;;11.40;99.90;;;;;;4974204;28;20131;-84
2023/05/30 05:26:49;;;;;;;14.73;3.67;;;11.40;99.90;;;;;;4993750;28;20120;-84
2023/05/30 05:29:14;;;;;;;14.55;4.07;;;11.50;99.90;;;;;;4992092;28;20039;-84
2023/05/30 05:31:40;;;;;;;15.10;3.85;;;11.50;99.90;;;;;;4989243;28;20163;-85
2023/05/30 05:34:06;;;;;;;9.18;3.03;;;11.50;99.90;;;;;;5006068;28;20505;-85
2023/05/30 05:36:32;;;;;;;12.18;3.50;;;11.60;99.90;;;;;;4986487;28;20068;-85
2023/05/30 05:38:57;;;;;;;13.20;3.50;;;11.60;99.90;;;;;;5008404;28;20045;-85
2023/05/30 05:41:23;;;;;;;10.73;3.30;;;11.60;99.90;;;;;;4996129;28;20121;-84
2023/05/30 05:43:49;;;;;;;9.85;3.92;;;11.70;99.90;;;;;;5023370;28;20046;-84
2023/05/30 05:46:14;;;;;;;10.60;3.47;;;11.80;99.90;;;;;;5008993;28;20037;-84
2023/05/30 05:48:40;;;;;;;15.55;4.20;;;11.80;99.90;;;;;;5035984;28;20076;-85
2023/05/30 05:51:06;;;;;;;12.32;3.40;;;11.80;99.90;;;;;;5015497;28;20064;-84
2023/05/30 05:53:32;;;;;;;11.05;3.53;;;11.80;99.90;;;;;;5006191;28;20120;-85
2023/05/30 05:56:00;;;;;;;13.25;3.38;;;11.90;99.90;;;;;;4998637;28;20062;-83
2023/05/30 05:58:26;;;;;;;13.90;3.67;;;11.90;99.90;;;;;;5035259;28;20397;-83
2023/05/30 06:00:52;;;;;;;9.65;3.80;;;12.00;99.90;;;;;;5002679;28;20102;-83
2023/05/30 06:03:17;;;;;;;8.70;3.30;;;12.00;99.90;;;;;;5018188;28;20493;-82
2023/05/30 06:05:43;;;;;;;10.15;3.08;;;12.10;99.90;;;;;;5019299;28;20048;-84
2023/05/30 06:08:09;;;;;;;13.75;3.30;;;12.10;99.90;;;;;;5034498;28;20452;-84
2023/05/30 06:10:34;;;;;;;11.23;3.08;;;12.20;99.90;;;;;;5018646;28;20052;-84
2023/05/30 06:13:00;;;;;;;9.80;3.17;;;12.30;99.90;;;;;;5035819;28;20041;-83
2023/05/30 06:15:26;;;;;;;12.05;3.13;;;12.30;99.90;;;;;;4999757;28;20057;-85
2023/05/30 06:17:51;;;;;;;9.93;3.25;;;12.40;99.90;;;;;;5003206;28;20500;-85
2023/05/30 06:20:17;;;;;;;8.35;3.35;;;12.50;99.90;;;;;;5018447;28;20040;-82
2023/05/30 06:22:43;;;;;;;10.40;3.13;;;12.40;99.90;;;;;;5019784;28;20047;-84
2023/05/30 06:25:09;;;;;;;11.07;3.65;;;12.50;99.90;;;;;;5033263;28;20496;-84
2023/05/30 06:27:35;;;;;;;9.43;2.92;;;12.50;99.90;;;;;;5014681;28;20041;-84
2023/05/30 06:30:01;;;;;;;14.15;3.10;;;12.50;99.90;;;;;;5018544;28;20044;-84
2023/05/30 06:32:26;;;;;;;16.08;3.60;;;12.60;99.90;;;;;;5002659;28;20032;-85
2023/05/30 06:34:52;;;;;;;8.43;3.22;;;12.60;99.90;;;;;;5030028;28;20040;-84
2023/05/30 06:37:18;;;;;;;13.63;3.13;;;12.60;99.90;;;;;;5013328;28;20543;-84
2023/05/30 06:39:43;;;;;;;14.63;3.25;;;12.60;99.90;;;;;;5011586;28;20049;-83
2023/05/30 06:42:10;;;;;;;11.25;3.35;;;12.60;99.90;;;;;;4997114;28;20469;-83
2023/05/30 06:44:36;;;;;;;11.85;3.28;;;12.60;99.90;;;;;;5010419;28;20037;-82
2023/05/30 06:47:02;;;;;;;15.13;3.42;;;12.70;99.90;;;;;;5007381;28;20052;-84
2023/05/30 06:49:29;;;;;;;9.75;3.15;;;12.60;99.90;;;;;;4993249;28;20433;-85
2023/05/30 06:51:55;;;;;;;14.07;3.72;;;12.70;99.90;;;;;;5013653;28;20102;-84
2023/05/30 06:54:21;;;;;;;10.15;3.33;;;12.80;99.90;;;;;;4992861;28;20041;-86
2023/05/30 06:56:47;;;;;;;10.10;3.70;;;12.80;99.90;;;;;;4995847;28;20029;-84
2023/05/30 06:59:13;;;;;;;9.90;3.17;;;12.80;99.90;;;;;;5035555;28;20052;-84
2023/05/30 07:01:39;;;;;;;8.93;2.90;;;12.80;99.90;;;;;;5023583;28;20485;-84
2023/05/30 07:04:05;;;;;;;10.90;4.00;;;12.70;99.90;;;;;;5021926;28;20138;-85
2023/05/30 07:06:31;;;;;;;9.88;3.55;;;12.80;99.90;;;;;;5037777;28;20332;-84
2023/05/30 07:08:57;;;;;;;7.78;3.08;;;12.80;99.90;;;;;;4986575;28;20041;-85
2023/05/30 07:11:23;;;;;;;9.10;3.13;;;12.80;99.90;;;;;;5001747;28;20051;-84
2023/05/30 07:13:49;;;;;;;7.65;3.05;;;12.80;99.90;;;;;;5035313;28;20400;-84
2023/05/30 07:16:15;;;;;;;9.90;2.50;;;12.90;99.90;;;;;;5017076;28;20048;-84
2023/05/30 07:18:40;;;;;;;7.80;2.85;;;12.90;99.90;;;;;;5017523;28;20041;-84
2023/05/30 07:21:07;;;;;;;12.63;3.25;;;13.00;99.90;;;;;;5018193;28;20047;-84
2023/05/30 07:23:34;;;;;;;7.22;2.88;;;13.00;99.90;;;;;;5022233;28;20048;-84
2023/05/30 07:26:00;;;;;;;11.75;3.25;;;13.00;99.90;;;;;;5021945;28;20130;-84
2023/05/30 07:28:26;;;;;;;9.82;3.25;;;13.00;99.90;;;;;;5022379;28;20041;-84
2023/05/30 07:30:52;;;;;;;9.93;2.40;;;13.10;99.90;;;;;;5022681;28;20099;-85
2023/05/30 07:33:18;;;;;;;6.25;2.72;;;13.10;99.90;;;;;;5019375;28;20379;-84
2023/05/30 07:35:45;;;;;;;8.20;2.50;;;13.10;99.90;;;;;;5000414;28;20060;-84
2023/05/30 07:38:11;;;;;;;9.82;2.85;;;13.20;99.90;;;;;;5038896;28;20041;-84
2023/05/30 07:40:37;;;;;;;9.68;2.60;;;13.20;99.90;;;;;;5020307;28;20202;-83
2023/05/30 07:43:03;;;;;;;7.55;2.85;;;13.20;99.90;;;;;;5017242;28;20100;-85
2023/05/30 07:45:28;;;;;;;9.80;3.22;;;13.30;99.90;;;;;;5026230;28;20037;-83
2023/05/30 07:47:54;;;;;;;7.00;2.75;;;13.30;99.90;;;;;;5018599;28;20060;-82
2023/05/30 07:50:20;;;;;;;7.50;2.95;;;13.20;99.90;;;;;;4997918;28;20394;-82
2023/05/30 07:52:46;;;;;;;14.77;2.85;;;13.30;99.90;;;;;;5018850;28;20072;-83
2023/05/30 07:55:12;;;;;;;12.52;3.28;;;13.20;99.90;;;;;;5010751;28;20066;-84
2023/05/30 07:57:38;;;;;;;10.73;3.30;;;13.20;99.90;;;;;;4976043;28;20122;-84
2023/05/30 08:00:08;;;;;;;8.90;3.08;;;13.10;99.90;;;;;;4986009;28;20061;-84
2023/05/30 08:02:34;;;;;;;6.07;2.72;;;13.00;99.90;;;;;;4985437;28;20120;-83
2023/05/30 08:05:00;;;;;;;7.22;2.38;;;12.90;99.90;;;;;;4992144;28;20077;-84
2023/05/30 08:07:26;;;;;;;9.98;2.90;;;13.00;99.90;;;;;;5007473;28;20481;-84
2023/05/30 08:09:52;;;;;;;7.78;2.83;;;13.00;99.90;;;;;;5000600;28;20117;-84
2023/05/30 08:12:21;;;;;;;6.07;2.38;;;13.00;99.90;;;;;;4982235;28;20037;-84
2023/05/30 08:14:47;;;;;;;7.22;2.53;;;12.90;99.90;;;;;;5022520;28;20101;-82
2023/05/30 08:17:16;;;;;;;6.28;2.50;;;13.00;99.90;;;;;;5013012;28;20052;-84
2023/05/30 08:19:45;;;;;;;7.88;2.60;;;13.00;99.90;;;;;;5004855;28;20049;-85
2023/05/30 08:22:11;;;;;;;7.63;2.65;;;13.10;99.90;;;;;;4992997;28;20053;-85
2023/05/30 08:24:37;;;;;;;7.93;2.28;;;13.10;99.90;;;;;;4992976;28;20037;-85
2023/05/30 08:27:04;;;;;;;9.60;2.25;;;13.10;99.90;;;;;;4993996;28;20049;-83
2023/05/30 08:29:31;;;;;;;8.65;2.92;;;13.10;99.90;;;;;;4997037;28;20095;-84
2023/05/30 08:31:57;;;;;;;6.50;2.30;;;13.10;99.90;;;;;;4993332;28;20049;-84
2023/05/30 08:34:24;;;;;;;8.27;2.30;;;13.00;99.90;;;;;;5002917;28;20048;-84
2023/05/30 08:36:55;;;;;;;8.55;2.15;;;13.10;99.90;;;;;;4999237;28;20041;-84
2023/05/30 08:39:20;;;;;;;11.25;2.35;;;13.10;99.90;;;;;;5013821;28;20041;-84
2023/05/30 08:41:46;;;;;;;7.47;2.65;;;13.20;99.90;;;;;;4998209;28;20404;-85
2023/05/30 08:44:12;;;;;;;5.18;2.45;;;13.20;99.90;;;;;;4980794;28;20045;-85
2023/05/30 08:46:45;;;;;;;7.57;2.55;;;13.20;99.90;;;;;;5014942;28;20452;-85
2023/05/30 08:49:17;;;;;;;5.97;2.58;;;13.20;99.90;;;;;;5013617;28;20469;-85
2023/05/30 08:51:43;;;;;;;7.95;2.53;;;13.20;99.90;;;;;;4998959;28;20044;-85
2023/05/30 08:54:22;;;;;;;6.40;2.13;;;13.20;99.90;;;;;;5014300;28;20042;-85
2023/05/30 08:57:13;;;;;;;5.75;2.40;;;13.30;99.90;;;;;;5015073;28;20056;-84
2023/05/30 08:59:40;;;;;;;4.15;2.08;;;13.40;99.90;;;;;;4998312;28;20045;-84
2023/05/30 09:02:07;;;;;;;7.93;2.40;;;13.40;99.90;;;;;;4993411;28;20387;-87
2023/05/30 09:04:34;;;;;;;7.32;2.30;;;13.40;99.90;;;;;;5006835;28;20040;-84
2023/05/30 09:07:01;;;;;;;6.63;3.13;;;13.40;99.90;;;;;;4987886;28;20087;-86
2023/05/30 09:09:29;;;;;;;5.45;2.42;;;13.50;99.90;;;;;;5012642;28;20037;-85
2023/05/30 09:11:54;;;;;;;7.93;2.25;;;13.50;99.90;;;;;;4996869;28;20046;-85
2023/05/30 09:14:21;;;;;;;6.35;2.55;;;13.60;99.90;;;;;;5011625;28;20390;-87
2023/05/30 09:16:47;;;;;;;7.30;2.33;;;13.60;99.90;;;;;;4997691;28;20480;-86
2023/05/30 09:19:12;;;;;;;4.47;2.10;;;13.70;99.90;;;;;;5012957;28;20071;-85
2023/05/30 09:21:38;;;;;;;6.63;2.28;;;13.70;99.90;;;;;;4995756;28;20037;-85
2023/05/30 09:24:05;;;;;;;9.85;2.72;;;13.80;99.90;;;;;;5012289;28;20401;-85
2023/05/30 09:26:32;;;;;;;4.32;2.30;;;13.80;99.90;;;;;;4994404;28;20134;-85
2023/05/30 09:29:08;;;;;;;4.45;2.13;;;13.80;99.90;;;;;;4983304;28;20199;-84
2023/05/30 09:31:35;;;;;;;;;;;13.90;99.90;;;;;;5024115;28;20572;-84
2023/05/30 09:34:01;;;;;;;6.80;2.75;;;13.90;99.90;;;;;;5014921;28;19920;-84
2023/05/30 09:36:28;;;;;;;6.60;2.95;;;13.90;99.90;;;;;;5000397;28;20374;-85
2023/05/30 09:38:58;;;;;;;8.30;2.95;;;13.80;99.90;;;;;;5013452;28;20064;-85
2023/05/30 09:41:26;;;;;;;9.05;2.90;;;13.80;99.90;;;;;;4995770;28;20482;-87
2023/05/30 09:43:53;;;;;;;6.07;2.65;;;13.80;99.90;;;;;;4997046;28;20029;-85
2023/05/30 09:46:29;;;;;;;8.85;2.65;;;13.80;99.90;;;;;;5021194;28;20085;-86
2023/05/30 09:48:55;;;;;;;;;;;13.80;99.90;;;;;;5010671;28;20054;-87
2023/05/30 09:51:25;;;;;;;5.93;2.40;;;13.80;99.90;;;;;;4996572;28;19956;-86
2023/05/30 09:54:00;;;;;;;4.03;2.17;;;13.80;99.90;;;;;;5014374;28;20095;-85
2023/05/30 09:56:33;;;;;;;4.43;1.90;;;13.90;99.90;;;;;;5011884;28;20052;-85
2023/05/30 09:59:07;;;;;;;3.83;1.98;;;13.90;99.90;;;;;;4992556;28;20499;-84
2023/05/30 10:01:39;;;;;;;4.30;1.80;;;13.90;99.90;;;;;;5013011;28;20037;-84
2023/05/30 10:04:25;;;;;;;4.68;1.83;;;14.00;99.90;;;;;;4993476;28;20041;-83
2023/05/30 10:06:53;;;;;;;4.25;2.10;;;14.10;99.90;;;;;;4998939;28;20129;-86
2023/05/30 10:09:23;;;;;;;4.90;1.90;;;14.10;99.90;;;;;;5011396;28;20033;-85
2023/05/30 10:11:49;;;;;;;4.95;2.42;;;14.10;99.90;;;;;;4999102;28;20179;-85
2023/05/30 10:14:15;;;;;;;6.20;2.70;;;14.10;99.90;;;;;;4983500;28;20374;-82
2023/05/30 10:16:46;;;;;;;6.40;2.40;;;14.10;99.90;;;;;;4994712;28;20044;-84
2023/05/30 10:19:28;;;;;;;3.67;2.10;;;14.10;99.90;;;;;;4990810;28;20497;-87
2023/05/30 10:21:55;;;;;;;3.35;1.95;;;14.00;99.90;;;;;;4996412;28;20189;-86
2023/05/30 10:24:21;;;;;;;6.95;2.38;;;14.00;99.90;;;;;;4997815;28;20040;-86
2023/05/30 10:26:53;;;;;;;3.88;1.95;;;14.00;99.90;;;;;;5000974;28;20076;-86
2023/05/30 10:29:24;;;;;;;3.90;1.77;;;14.10;99.90;;;;;;4997912;28;20064;-86
2023/05/30 10:31:53;;;;;;;3.65;2.00;;;14.20;99.90;;;;;;5014032;28;20449;-85
2023/05/30 10:34:22;;;;;;;8.30;2.00;;;14.30;99.90;;;;;;5013425;28;20485;-89
2023/05/30 10:36:48;;;;;;;4.13;2.10;;;14.50;99.90;;;;;;4995513;28;20079;-84
2023/05/30 10:39:31;;;;;;;3.05;1.88;;;14.50;99.90;;;;;;5013419;28;20045;-85
2023/05/30 10:42:03;;;;;;;3.83;1.83;;;14.60;99.90;;;;;;5016217;28;20068;-82
2023/05/30 10:45:07;;;;;;;5.45;2.08;;;14.60;99.90;;;;;;5016676;28;20038;-83
2023/05/30 10:47:44;;;;;;;2.30;1.67;;;14.50;99.90;;;;;;5001827;28;20049;-84
2023/05/30 10:50:22;;;;;;;2.80;1.58;;;14.50;99.90;;;;;;5031576;28;20048;-83
2023/05/30 10:52:47;;;;;;;2.95;1.90;;;14.50;99.90;;;;;;5027344;28;20478;-83
2023/05/30 10:55:14;;;;;;;5.10;2.08;;;14.50;99.90;;;;;;5014776;28;20082;-83
2023/05/30 10:57:41;;;;;;;4.03;2.20;;;14.50;99.90;;;;;;5031721;28;20045;-84
2023/05/30 11:00:20;;;;;;;17.25;2.50;;;14.50;99.90;;;;;;5014833;28;20124;-83
2023/05/30 11:02:54;;;;;;;4.90;2.00;;;14.60;99.90;;;;;;5020006;28;20102;-85
2023/05/30 11:05:32;;;;;;;15.07;2.70;;;14.60;99.90;;;;;;5014781;28;20106;-84
2023/05/30 11:08:00;;;;;;;4.65;2.20;;;14.70;99.90;;;;;;5033218;28;20040;-85
2023/05/30 11:10:27;;;;;;;3.55;2.15;;;14.70;99.90;;;;;;5031158;28;20121;-84
2023/05/30 11:13:08;;;;;;;2.45;1.50;;;14.70;99.90;;;;;;5020512;28;20389;-85
2023/05/30 11:15:34;;;;;;;2.25;1.40;;;14.60;99.90;;;;;;5013340;28;20385;-85
2023/05/30 11:18:00;;;;;;;2.63;1.50;;;14.50;99.90;;;;;;5018164;28;20037;-85
2023/05/30 11:20:26;;;;;;;2.60;1.55;;;14.50;99.90;;;;;;5016375;28;20464;-86
2023/05/30 11:23:01;;;;;;;3.10;1.45;;;14.50;99.90;;;;;;5013978;28;20037;-84
2023/05/30 11:25:29;;;;;;;2.58;1.42;;;14.50;99.90;;;;;;5014409;28;20561;-85
2023/05/30 11:28:05;;;;;;;3.20;1.58;;;14.50;99.90;;;;;;5031702;28;20037;-84
2023/05/30 11:30:37;;;;;;;4.22;1.70;;;14.50;99.90;;;;;;5029406;28;20043;-86
2023/05/30 11:33:13;;;;;;;1.63;1.25;;;14.50;99.90;;;;;;4999787;28;20060;-86
2023/05/30 11:35:41;;;;;;;2.92;1.48;;;14.40;99.90;;;;;;5015871;28;20116;-86
2023/05/30 11:38:07;;;;;;;3.35;1.90;;;14.40;99.90;;;;;;5024929;28;20509;-86
2023/05/30 11:40:33;;;;;;;2.78;1.38;;;14.50;99.90;;;;;;5002633;28;20045;-86
2023/05/30 11:42:58;;;;;;;2.83;1.23;;;14.50;99.90;;;;;;5017497;28;20424;-86
2023/05/30 11:45:28;;;;;;;1.25;1.15;;;14.50;99.90;;;;;;5015638;28;20473;-87
2023/05/30 11:48:03;;;;;;;5.40;1.70;;;14.50;99.90;;;;;;5030653;28;20417;-85
2023/05/30 11:50:28;;;;;;;1.80;1.38;;;14.60;99.90;;;;;;5028072;28;20048;-85
2023/05/30 11:52:56;;;;;;;2.30;1.60;;;14.70;99.90;;;;;;5000626;28;20500;-86
2023/05/30 11:55:22;;;;;;;1.15;1.00;;;14.70;99.90;;;;;;5020780;28;20037;-86
2023/05/30 11:57:48;;;;;;;1.83;1.13;;;14.70;99.90;;;;;;5012224;28;20048;-87
2023/05/30 12:00:14;;;;;;;4.03;1.70;;;14.80;99.90;;;;;;5036102;28;20040;-85
2023/05/30 12:02:41;;;;;;;5.68;1.50;;;14.80;99.90;;;;;;4998822;28;20088;-85
2023/05/30 12:05:08;;;;;;;2.22;1.30;;;14.80;99.90;;;;;;5033441;28;20041;-85
2023/05/30 12:07:34;;;;;;;1.77;1.10;;;14.80;99.90;;;;;;5016999;28;20063;-85
2023/05/30 12:09:59;;;;;;;1.58;1.00;;;14.70;99.90;;;;;;5018701;28;20044;-85
2023/05/30 12:12:26;;;;;;;1.80;1.10;;;14.80;99.90;;;;;;4999768;28;20041;-85
2023/05/30 12:14:55;;;;;;;1.65;1.15;;;14.80;99.90;;;;;;4999948;28;20500;-85
2023/05/30 12:17:21;;;;;;;2.40;1.35;;;14.90;99.90;;;;;;5018149;28;20485;-85
2023/05/30 12:19:50;;;;;;;3.25;1.15;;;14.90;99.90;;;;;;5001629;28;20087;-84
2023/05/30 12:22:17;;;;;;;1.90;1.10;;;15.00;99.90;;;;;;5037422;28;20040;-85
2023/05/30 12:24:43;;;;;;;2.95;1.30;;;15.10;99.90;;;;;;5020246;28;20033;-85
2023/05/30 12:27:35;;;;;;;1.67;0.95;;;15.30;99.90;;;;;;5018850;28;20496;-87
2023/05/30 12:30:21;;;;;;;5.18;1.48;;;15.30;99.90;;;;;;5018019;28;20045;-87
2023/05/30 12:32:47;;;;;;;2.88;1.30;;;15.30;99.90;;;;;;5019850;28;20459;-85
2023/05/30 12:35:13;;;;;;;1.88;1.33;;;15.30;99.90;;;;;;5001643;28;20041;-86
2023/05/30 12:37:39;;;;;;;1.90;1.40;;;15.30;99.90;;;;;;5021466;28;20040;-85
2023/05/30 12:40:06;;;;;;;2.45;1.20;;;15.20;99.90;;;;;;5001665;28;20037;-86
2023/05/30 12:42:36;;;;;;;1.60;1.17;;;15.20;99.90;;;;;;5029247;28;20086;-85
2023/05/30 12:45:09;;;;;;;2.85;1.40;;;15.10;99.90;;;;;;5005018;28;20528;-87
2023/05/30 12:47:35;;;;;;;3.28;1.70;;;15.10;99.90;;;;;;5016963;28;20053;-86